Time;durP1;ratioP1;P1;durP2;ratioP2;P2;SDS_P1;SDS_P2;PMS_P1;PMS_P2;Temp;Humidity;BMP_temperature;BMP_pressure;BME280_temperature;BME280_humidity;BME280_pressure;Samples;Min_cycle;Max_cycle;Signal;HPM_P1;HPM_P2
2022/05/05 00:02:07;;;;;;;3.72;3.42;;;14.40;75.30;;;;;;5055085;28;20777;-66
2022/05/05 00:04:33;;;;;;;4.28;3.28;;;14.40;75.30;;;;;;5056806;28;20033;-66
2022/05/05 00:07:03;;;;;;;3.90;3.40;;;14.40;75.30;;;;;;5064030;28;20048;-66
2022/05/05 00:09:29;;;;;;;3.60;3.30;;;14.30;76.20;;;;;;5055628;28;20037;-64
2022/05/05 00:14:40;;;;;;;3.80;3.50;;;14.40;75.40;;;;;;5055432;28;20043;-66
2022/05/05 00:17:08;;;;;;;3.35;3.10;;;14.40;75.30;;;;;;5056042;28;20041;-65
2022/05/05 00:19:35;;;;;;;3.72;3.42;;;14.30;75.30;;;;;;5055031;28;20044;-66
2022/05/05 00:22:02;;;;;;;3.58;3.28;;;14.30;75.40;;;;;;5057001;28;20116;-67
2022/05/05 00:24:28;;;;;;;3.70;3.40;;;14.30;75.40;;;;;;5054684;28;20040;-65
2022/05/05 00:26:54;;;;;;;3.33;3.03;;;14.30;75.30;;;;;;5052197;28;20048;-65
2022/05/05 00:29:21;;;;;;;3.33;3.13;;;14.30;75.30;;;;;;5052912;28;20505;-65
2022/05/05 00:31:47;;;;;;;3.70;3.40;;;14.20;75.40;;;;;;5054008;28;20059;-66
2022/05/05 00:34:13;;;;;;;5.88;3.25;;;14.20;75.50;;;;;;5055642;28;20541;-66
2022/05/05 00:36:39;;;;;;;3.90;3.60;;;14.20;75.60;;;;;;5054456;28;20025;-65
2022/05/05 00:39:07;;;;;;;5.53;3.67;;;14.10;75.60;;;;;;5053386;28;20028;-65
2022/05/05 00:41:34;;;;;;;4.35;3.30;;;14.10;75.80;;;;;;5052091;28;20107;-65
2022/05/05 00:44:02;;;;;;;3.88;3.38;;;14.10;76.60;;;;;;5051642;28;20107;-66
2022/05/05 00:46:28;;;;;;;3.63;3.33;;;14.00;75.90;;;;;;5053610;28;20033;-65
2022/05/05 00:48:55;;;;;;;3.65;3.00;;;14.00;75.90;;;;;;5051860;28;20730;-66
2022/05/05 00:51:20;;;;;;;3.53;3.22;;;14.00;76.00;;;;;;5057772;28;20119;-67
2022/05/05 00:53:46;;;;;;;3.00;2.80;;;14.00;76.10;;;;;;5054208;28;20133;-66
2022/05/05 00:56:14;;;;;;;4.18;3.50;;;14.00;76.10;;;;;;5057746;28;20085;-65
2022/05/05 00:58:43;;;;;;;3.42;3.13;;;14.10;77.00;;;;;;5055881;28;20044;-66
2022/05/05 01:01:09;;;;;;;3.92;3.00;;;14.00;76.00;;;;;;5059466;28;20103;-66
2022/05/05 01:03:36;;;;;;;3.67;3.38;;;14.00;76.80;;;;;;5056049;28;20076;-67
2022/05/05 01:06:03;;;;;;;3.42;3.10;;;14.00;76.00;;;;;;5057265;28;20091;-66
2022/05/05 01:08:29;;;;;;;3.58;3.28;;;14.00;76.00;;;;;;5057352;28;20036;-66
2022/05/05 01:10:55;;;;;;;4.00;3.70;;;14.00;76.00;;;;;;5055607;28;20040;-66
2022/05/05 01:13:22;;;;;;;5.00;3.63;;;14.00;76.20;;;;;;5060041;28;20032;-65
2022/05/05 01:15:49;;;;;;;4.18;3.85;;;14.00;76.30;;;;;;5053575;28;20089;-67
2022/05/05 01:18:14;;;;;;;4.10;3.72;;;14.00;76.10;;;;;;5057241;28;20024;-64
2022/05/05 01:20:44;;;;;;;4.47;4.07;;;13.90;76.10;;;;;;5057364;28;20028;-66
2022/05/05 01:23:11;;;;;;;4.90;4.18;;;13.90;76.50;;;;;;5057696;28;20101;-63
2022/05/05 01:28:21;;;;;;;5.03;3.60;;;13.90;76.50;;;;;;5058947;28;20552;-66
2022/05/05 01:30:48;;;;;;;4.00;3.63;;;13.90;76.50;;;;;;5056345;28;20025;-65
2022/05/05 01:33:16;;;;;;;3.90;3.58;;;13.80;76.60;;;;;;5059542;28;20063;-66
2022/05/05 01:35:43;;;;;;;3.83;3.38;;;13.80;76.70;;;;;;5056363;28;20036;-66
2022/05/05 01:38:11;;;;;;;4.43;4.03;;;13.80;76.80;;;;;;5057070;28;20032;-66
2022/05/05 01:40:37;;;;;;;4.18;3.88;;;13.80;76.80;;;;;;5055188;28;20039;-65
2022/05/05 01:43:07;;;;;;;4.43;4.03;;;13.80;76.90;;;;;;5059913;28;20447;-66
2022/05/05 01:45:33;;;;;;;4.22;3.92;;;13.80;77.20;;;;;;5057666;28;20035;-66
2022/05/05 01:47:59;;;;;;;4.45;3.88;;;13.90;77.00;;;;;;5058357;28;20630;-66
2022/05/05 01:50:25;;;;;;;3.95;3.53;;;13.90;77.10;;;;;;5055558;28;20128;-66
2022/05/05 01:52:53;;;;;;;4.53;3.72;;;13.90;77.00;;;;;;5057802;28;20094;-66
2022/05/05 01:55:21;;;;;;;4.15;3.75;;;13.90;76.90;;;;;;5058780;28;20457;-67
2022/05/05 01:57:48;;;;;;;5.40;4.28;;;13.90;76.80;;;;;;5056143;28;20040;-66
2022/05/05 02:00:14;;;;;;;4.03;3.72;;;13.90;76.90;;;;;;5054171;28;20052;-64
2022/05/05 02:02:44;;;;;;;4.45;4.05;;;13.90;76.90;;;;;;5054144;28;20029;-66
2022/05/05 02:05:10;;;;;;;3.88;3.58;;;14.00;76.80;;;;;;5053900;28;20043;-66
2022/05/05 02:07:36;;;;;;;4.40;3.97;;;13.90;76.60;;;;;;5057187;28;20033;-67
2022/05/05 02:10:06;;;;;;;4.88;4.45;;;14.00;76.80;;;;;;5058414;28;20156;-66
2022/05/05 02:12:35;;;;;;;4.18;3.83;;;13.90;76.80;;;;;;5054574;28;20021;-66
2022/05/05 02:15:00;;;;;;;4.60;4.20;;;14.00;76.70;;;;;;5056014;28;20537;-65
2022/05/05 02:17:26;;;;;;;4.78;4.38;;;13.90;76.60;;;;;;5056184;28;20044;-66
2022/05/05 02:19:51;;;;;;;4.40;4.10;;;13.90;76.80;;;;;;5057200;28;20036;-66
2022/05/05 02:22:17;;;;;;;5.45;4.20;;;13.80;76.70;;;;;;5058490;28;20093;-66
2022/05/05 02:24:43;;;;;;;4.50;4.10;;;13.80;76.70;;;;;;5055623;28;20040;-66
2022/05/05 02:27:08;;;;;;;6.82;4.03;;;13.80;76.90;;;;;;5055808;28;20045;-66
2022/05/05 02:29:34;;;;;;;4.15;3.85;;;13.70;76.90;;;;;;5056483;28;20575;-66
2022/05/05 02:32:00;;;;;;;4.25;3.95;;;13.70;77.10;;;;;;5054855;28;20047;-66
2022/05/05 02:34:26;;;;;;;3.95;3.65;;;13.70;77.20;;;;;;5054459;28;20041;-65
2022/05/05 02:39:35;;;;;;;4.15;3.85;;;13.70;77.20;;;;;;5055185;28;20047;-65
2022/05/05 02:42:01;;;;;;;4.25;3.85;;;13.70;77.10;;;;;;5055631;28;20033;-66
2022/05/05 02:44:27;;;;;;;3.88;3.53;;;13.70;77.00;;;;;;5054228;28;20036;-66
2022/05/05 02:46:52;;;;;;;4.68;4.28;;;13.70;77.00;;;;;;5054787;28;20403;-66
2022/05/05 02:49:18;;;;;;;6.68;4.43;;;13.70;77.00;;;;;;5056009;28;20037;-66
2022/05/05 02:51:45;;;;;;;4.30;3.90;;;13.70;76.80;;;;;;5055198;28;20051;-66
2022/05/05 02:56:55;;;;;;;4.40;4.00;;;13.70;76.80;;;;;;5055235;28;20043;-65
2022/05/05 02:59:20;;;;;;;4.28;3.97;;;13.60;76.80;;;;;;5055325;28;20040;-65
2022/05/05 03:01:46;;;;;;;4.47;4.07;;;13.60;77.00;;;;;;5056368;28;20517;-65
2022/05/05 03:04:12;;;;;;;4.57;3.90;;;13.60;76.90;;;;;;5057166;28;20047;-66
2022/05/05 03:06:38;;;;;;;4.68;4.28;;;13.60;77.00;;;;;;5053621;28;20052;-66
2022/05/05 03:09:03;;;;;;;4.75;4.35;;;13.60;77.00;;;;;;5056220;28;20030;-66
2022/05/05 03:11:29;;;;;;;3.83;3.53;;;13.50;77.10;;;;;;5052435;28;20541;-66
2022/05/05 03:13:54;;;;;;;5.60;4.13;;;13.50;77.20;;;;;;5053494;28;20033;-66
2022/05/05 03:16:20;;;;;;;4.60;4.20;;;13.50;77.30;;;;;;5056179;28;20127;-65
2022/05/05 03:18:45;;;;;;;4.78;4.38;;;13.50;77.40;;;;;;5052917;28;20494;-65
2022/05/05 03:21:11;;;;;;;5.60;4.32;;;13.50;77.40;;;;;;5056477;28;20025;-64
2022/05/05 03:23:37;;;;;;;5.07;4.55;;;13.40;77.30;;;;;;5058469;28;20403;-66
2022/05/05 03:26:02;;;;;;;6.22;4.82;;;13.40;77.30;;;;;;5054900;28;20033;-66
2022/05/05 03:28:28;;;;;;;7.03;4.53;;;13.40;77.50;;;;;;5056140;28;20038;-65
2022/05/05 03:30:54;;;;;;;4.53;4.22;;;13.30;77.70;;;;;;5057117;28;20089;-66
2022/05/05 03:33:19;;;;;;;5.43;4.93;;;13.20;77.90;;;;;;5055143;28;20464;-65
2022/05/05 03:35:45;;;;;;;5.38;4.88;;;13.20;78.20;;;;;;5055798;28;20071;-66
2022/05/05 03:38:11;;;;;;;5.50;5.00;;;13.10;79.40;;;;;;5055074;28;20037;-66
2022/05/05 03:40:36;;;;;;;5.35;4.80;;;13.10;78.60;;;;;;5052849;28;20032;-66
2022/05/05 03:43:02;;;;;;;7.03;5.05;;;13.10;78.60;;;;;;5061397;28;20044;-65
2022/05/05 03:45:28;;;;;;;8.32;5.07;;;13.00;78.60;;;;;;5053035;28;20041;-65
2022/05/05 03:47:53;;;;;;;5.82;5.30;;;13.00;78.40;;;;;;5055015;28;20028;-66
2022/05/05 03:50:19;;;;;;;5.88;5.28;;;13.00;78.40;;;;;;5055310;28;20105;-66
2022/05/05 03:52:44;;;;;;;5.57;5.05;;;13.00;78.40;;;;;;5053804;28;20031;-65
2022/05/05 03:55:10;;;;;;;5.32;4.82;;;12.90;78.40;;;;;;5055875;28;20036;-65
2022/05/05 03:57:36;;;;;;;6.45;4.80;;;13.00;78.60;;;;;;5055198;28;20033;-66
2022/05/05 04:00:04;;;;;;;4.97;4.57;;;13.00;78.60;;;;;;5072410;28;20273;-65
2022/05/05 04:02:30;;;;;;;5.07;4.68;;;13.00;78.60;;;;;;5054216;28;20524;-66
2022/05/05 04:04:55;;;;;;;5.35;4.85;;;13.00;78.60;;;;;;5050678;28;20079;-66
2022/05/05 04:07:21;;;;;;;6.28;5.00;;;13.00;78.60;;;;;;5052435;28;20568;-65
2022/05/05 04:09:47;;;;;;;6.13;4.93;;;13.10;78.40;;;;;;5060172;28;20036;-65
2022/05/05 04:12:13;;;;;;;9.57;5.00;;;13.10;78.20;;;;;;5051706;28;20033;-65
2022/05/05 04:14:38;;;;;;;5.65;5.05;;;13.10;78.20;;;;;;5056046;28;20032;-65
2022/05/05 04:17:04;;;;;;;6.50;5.43;;;13.10;78.20;;;;;;5057001;28;20032;-66
2022/05/05 04:19:30;;;;;;;5.78;5.13;;;13.10;78.10;;;;;;5051554;28;20029;-66
2022/05/05 04:21:55;;;;;;;5.45;4.95;;;13.10;78.00;;;;;;5053487;28;20027;-66
2022/05/05 04:24:21;;;;;;;5.13;4.72;;;13.10;77.90;;;;;;5056339;28;20033;-65
2022/05/05 04:26:47;;;;;;;5.57;5.07;;;13.10;77.80;;;;;;5050520;28;20119;-66
2022/05/05 04:29:13;;;;;;;6.65;5.03;;;13.10;77.70;;;;;;5054497;28;20494;-66
2022/05/05 04:31:40;;;;;;;6.07;5.30;;;13.10;77.50;;;;;;5052147;28;20045;-65
2022/05/05 04:34:06;;;;;;;7.10;5.22;;;13.10;77.40;;;;;;5052446;28;20040;-65
2022/05/05 04:36:34;;;;;;;7.07;5.30;;;13.10;77.40;;;;;;5052154;28;20036;-65
2022/05/05 04:39:04;;;;;;;5.45;4.95;;;13.00;77.60;;;;;;5056818;28;20225;-66
2022/05/05 04:41:30;;;;;;;7.47;5.63;;;13.00;77.70;;;;;;5056413;28;20029;-66
2022/05/05 04:43:56;;;;;;;7.07;5.60;;;13.00;77.90;;;;;;5062033;28;20028;-66
2022/05/05 04:46:22;;;;;;;6.15;5.45;;;13.00;78.00;;;;;;5057522;28;20041;-66
2022/05/05 04:48:48;;;;;;;7.13;5.35;;;12.90;77.90;;;;;;5052966;28;20144;-64
2022/05/05 04:51:14;;;;;;;6.95;5.88;;;12.90;78.00;;;;;;5054555;28;20021;-65
2022/05/05 04:53:40;;;;;;;8.23;6.20;;;12.90;78.20;;;;;;5055193;28;20150;-65
2022/05/05 04:56:06;;;;;;;7.22;6.22;;;12.80;78.20;;;;;;5055967;28;20036;-65
2022/05/05 04:58:35;;;;;;;7.80;5.93;;;12.90;78.50;;;;;;5056048;28;20055;-65
2022/05/05 05:01:01;;;;;;;7.32;6.18;;;12.90;78.70;;;;;;5057350;28;20578;-65
2022/05/05 05:03:32;;;;;;;30.20;17.60;;;12.80;78.70;;;;;;5056396;28;20040;-65
2022/05/05 05:05:59;;;;;;;31.83;17.08;;;12.90;78.90;;;;;;5054014;28;20120;-65
2022/05/05 05:08:24;;;;;;;19.25;12.07;;;12.90;78.90;;;;;;5054620;28;20031;-66
2022/05/05 05:10:50;;;;;;;10.68;7.60;;;12.90;78.80;;;;;;5057066;28;20062;-66
2022/05/05 05:13:16;;;;;;;8.65;7.03;;;12.90;78.80;;;;;;5057563;28;20021;-66
2022/05/05 05:15:41;;;;;;;6.80;6.20;;;12.90;79.80;;;;;;5055775;28;20028;-66
2022/05/05 05:18:07;;;;;;;7.07;6.38;;;12.90;79.10;;;;;;5057746;28;20040;-65
2022/05/05 05:20:33;;;;;;;7.10;6.40;;;12.90;79.20;;;;;;5056126;28;20033;-66
2022/05/05 05:22:58;;;;;;;7.70;5.88;;;12.90;79.30;;;;;;5055246;28;20036;-65
2022/05/05 05:25:25;;;;;;;7.00;6.30;;;13.00;79.40;;;;;;5057148;28;20116;-65
2022/05/05 05:27:50;;;;;;;6.70;6.07;;;13.00;79.60;;;;;;5055954;28;20090;-65
2022/05/05 05:30:16;;;;;;;7.47;6.68;;;13.10;79.90;;;;;;5057983;28;20634;-66
2022/05/05 05:32:41;;;;;;;7.38;6.53;;;13.10;79.90;;;;;;5055505;28;20033;-65
2022/05/05 05:35:07;;;;;;;7.10;6.28;;;13.20;80.00;;;;;;5057030;28;20147;-66
2022/05/05 05:37:33;;;;;;;6.82;6.22;;;13.30;80.00;;;;;;5063046;28;20379;-66
2022/05/05 05:39:58;;;;;;;7.20;6.40;;;13.30;80.10;;;;;;5057529;28;20411;-66
2022/05/05 05:42:24;;;;;;;9.35;6.57;;;13.40;80.10;;;;;;5059664;28;20064;-66
2022/05/05 05:44:50;;;;;;;7.35;6.60;;;13.50;79.90;;;;;;5058228;28;20132;-64
2022/05/05 05:47:15;;;;;;;8.35;6.40;;;13.60;79.50;;;;;;5059622;28;20037;-66
2022/05/05 05:49:41;;;;;;;7.38;6.60;;;13.70;79.10;;;;;;5055906;28;20505;-66
2022/05/05 05:52:07;;;;;;;6.85;6.20;;;13.80;79.10;;;;;;5059523;28;20040;-66
2022/05/05 05:54:33;;;;;;;6.93;6.22;;;13.90;79.00;;;;;;5057457;28;20047;-66
2022/05/05 05:56:58;;;;;;;7.35;6.32;;;13.90;78.80;;;;;;5060309;28;20044;-66
2022/05/05 05:59:24;;;;;;;6.93;6.22;;;14.00;78.60;;;;;;5059258;28;20557;-66
2022/05/05 06:04:34;;;;;;;7.07;6.38;;;14.10;77.80;;;;;;5058742;28;20036;-66
2022/05/05 06:07:00;;;;;;;7.10;6.40;;;14.20;77.70;;;;;;5057804;28;20037;-67
2022/05/05 06:09:26;;;;;;;6.95;6.25;;;14.20;77.50;;;;;;5058097;28;20115;-66
2022/05/05 06:11:51;;;;;;;7.70;6.07;;;14.30;77.50;;;;;;5059242;28;20564;-66
2022/05/05 06:14:17;;;;;;;7.05;6.20;;;14.40;77.50;;;;;;5058251;28;20033;-66
2022/05/05 06:16:43;;;;;;;7.22;6.38;;;14.40;77.50;;;;;;5058068;28;20025;-66
2022/05/05 06:19:08;;;;;;;9.88;7.00;;;14.50;77.60;;;;;;5058524;28;20609;-66
2022/05/05 06:21:34;;;;;;;8.05;6.90;;;14.50;77.70;;;;;;5059668;28;20498;-66
2022/05/05 06:24:00;;;;;;;8.45;7.00;;;14.50;77.80;;;;;;5057370;28;20076;-66
2022/05/05 06:26:27;;;;;;;11.13;7.25;;;14.60;78.00;;;;;;5058944;28;20033;-65
2022/05/05 06:28:54;;;;;;;7.25;6.40;;;14.70;78.00;;;;;;5058202;28;20159;-64
2022/05/05 06:31:20;;;;;;;7.85;6.28;;;14.70;77.50;;;;;;5057803;28;20433;-65
2022/05/05 06:33:45;;;;;;;6.68;5.88;;;14.80;76.80;;;;;;5056830;28;20025;-65
2022/05/05 06:36:11;;;;;;;6.90;5.90;;;14.80;76.20;;;;;;5059499;28;20162;-66
2022/05/05 06:38:37;;;;;;;8.77;6.03;;;14.90;76.80;;;;;;5063551;28;20083;-66
2022/05/05 06:41:03;;;;;;;7.93;6.13;;;14.90;75.90;;;;;;5055099;28;20033;-66
2022/05/05 06:43:29;;;;;;;6.47;5.85;;;15.00;76.10;;;;;;5059273;28;20062;-63
2022/05/05 06:45:55;;;;;;;6.78;6.07;;;15.00;76.00;;;;;;5057610;28;20053;-66
2022/05/05 06:48:21;;;;;;;6.97;6.28;;;15.10;75.60;;;;;;5059321;28;20059;-66
2022/05/05 06:50:47;;;;;;;6.20;5.65;;;15.10;75.40;;;;;;5056684;28;20062;-66
2022/05/05 06:53:12;;;;;;;6.78;6.15;;;15.10;75.40;;;;;;5058769;28;20059;-65
2022/05/05 06:55:38;;;;;;;7.05;6.38;;;15.20;75.30;;;;;;5057401;28;20041;-66
2022/05/05 06:58:03;;;;;;;7.00;6.40;;;15.20;75.30;;;;;;5058074;28;20041;-66
2022/05/05 07:01:51;;;;;;;9.50;6.93;;;15.20;75.20;;;;;;5057798;28;20045;-67
2022/05/05 07:03:15;;;;;;;7.22;6.53;;;15.20;75.10;;;;;;5057632;28;20543;-66
2022/05/05 07:05:41;;;;;;;9.73;6.95;;;15.20;75.20;;;;;;5057284;28;20405;-66
2022/05/05 07:08:06;;;;;;;7.30;6.60;;;15.30;75.30;;;;;;5058341;28;20032;-66
2022/05/05 07:13:16;;;;;;;7.10;6.37;;;15.30;75.80;;;;;;5057933;28;20075;-66
2022/05/05 07:15:42;;;;;;;7.28;6.28;;;15.30;75.80;;;;;;5057553;28;20716;-66
2022/05/05 07:18:08;;;;;;;10.57;7.00;;;15.40;75.70;;;;;;5056677;28;20037;-66
2022/05/05 07:20:34;;;;;;;8.48;6.80;;;15.40;75.60;;;;;;5057582;28;20479;-66
2022/05/05 07:22:59;;;;;;;9.43;6.38;;;15.40;75.40;;;;;;5057546;28;20040;-66
2022/05/05 07:25:26;;;;;;;7.32;6.57;;;15.50;75.30;;;;;;5058315;28;20029;-66
2022/05/05 07:27:52;;;;;;;7.63;6.82;;;15.50;75.50;;;;;;5058637;28;20405;-66
2022/05/05 07:30:19;;;;;;;7.35;6.38;;;15.60;75.10;;;;;;5056725;28;20039;-66
2022/05/05 07:32:44;;;;;;;6.85;6.03;;;15.60;75.10;;;;;;5055974;28;20066;-65
2022/05/05 07:35:13;;;;;;;8.73;6.72;;;15.60;75.00;;;;;;5056714;28;20063;-66
2022/05/05 07:37:39;;;;;;;7.65;6.85;;;15.70;74.70;;;;;;5058702;28;20123;-66
2022/05/05 07:40:06;;;;;;;9.15;7.10;;;15.70;74.50;;;;;;5057361;28;20058;-66
2022/05/05 07:42:32;;;;;;;7.85;7.05;;;15.70;74.60;;;;;;5057693;28;20035;-66
2022/05/05 07:44:58;;;;;;;8.25;6.90;;;15.70;74.40;;;;;;5056534;28;20039;-66
2022/05/05 07:47:24;;;;;;;9.40;7.22;;;15.70;74.60;;;;;;5057406;28;20294;-66
2022/05/05 07:49:49;;;;;;;7.82;6.90;;;15.70;74.80;;;;;;5055715;28;20063;-66
2022/05/05 07:52:15;;;;;;;7.78;7.00;;;15.80;75.20;;;;;;5056185;28;20115;-66
2022/05/05 07:54:44;;;;;;;8.38;6.80;;;15.80;75.30;;;;;;5055194;28;20362;-66
2022/05/05 07:57:12;;;;;;;8.30;7.50;;;15.80;75.40;;;;;;5056321;28;20090;-66
2022/05/05 07:59:38;;;;;;;8.55;7.38;;;15.90;75.40;;;;;;5057799;28;20086;-66
2022/05/05 08:02:05;;;;;;;10.30;7.93;;;15.90;75.10;;;;;;5052620;28;20041;-66
2022/05/05 08:04:31;;;;;;;7.85;7.05;;;15.90;75.30;;;;;;5056130;28;20035;-67
2022/05/05 08:06:57;;;;;;;8.95;7.90;;;16.00;75.60;;;;;;5057116;28;20064;-64
2022/05/05 08:09:23;;;;;;;9.35;8.45;;;16.00;75.10;;;;;;5059243;28;20036;-66
2022/05/05 08:11:48;;;;;;;8.75;7.95;;;16.10;75.40;;;;;;5057210;28;20033;-66
2022/05/05 08:14:14;;;;;;;9.60;8.25;;;16.10;74.20;;;;;;5058406;28;20047;-66
2022/05/05 08:16:40;;;;;;;10.50;7.85;;;16.10;74.00;;;;;;5057659;28;20162;-66
2022/05/05 08:19:06;;;;;;;9.18;8.25;;;16.10;73.90;;;;;;5057172;28;20032;-66
2022/05/05 08:21:32;;;;;;;9.18;7.95;;;16.10;73.90;;;;;;5058750;28;20039;-66
2022/05/05 08:29:26;;;;;;;9.57;8.60;;;16.20;72.60;;;;;;5057478;28;20052;-64
2022/05/05 08:31:53;;;;;;;9.52;8.63;;;16.30;72.40;;;;;;5056859;28;20485;-66
2022/05/05 08:34:19;;;;;;;11.68;8.80;;;16.30;71.90;;;;;;5055566;28;20029;-66
2022/05/05 08:36:45;;;;;;;9.40;8.50;;;16.30;71.40;;;;;;5053189;28;20512;-67
2022/05/05 08:39:11;;;;;;;9.80;8.80;;;16.30;71.50;;;;;;5056585;28;20060;-66
2022/05/05 08:41:40;;;;;;;9.80;8.82;;;16.30;71.30;;;;;;5057454;28;20025;-66
2022/05/05 08:44:07;;;;;;;9.40;8.50;;;16.40;71.20;;;;;;5057608;28;20067;-67
2022/05/05 08:46:34;;;;;;;9.85;8.65;;;16.40;71.30;;;;;;5057133;28;20588;-67
2022/05/05 08:49:04;;;;;;;9.65;8.70;;;16.50;71.10;;;;;;5055907;28;20497;-66
2022/05/05 08:51:45;;;;;;;9.98;8.55;;;16.50;70.40;;;;;;5058462;28;20059;-66
2022/05/05 08:54:16;;;;;;;9.70;8.57;;;16.50;70.90;;;;;;5054672;28;20529;-67
2022/05/05 08:56:49;;;;;;;10.85;8.88;;;16.50;70.90;;;;;;5058263;28;20029;-66
2022/05/05 08:59:16;;;;;;;8.80;7.95;;;16.60;71.20;;;;;;5057595;28;20459;-67
2022/05/05 09:01:41;;;;;;;9.30;8.40;;;16.60;70.40;;;;;;5058454;28;20039;-66
2022/05/05 09:04:08;;;;;;;8.85;7.95;;;16.60;70.20;;;;;;5056519;28;20476;-66
2022/05/05 09:06:44;;;;;;;9.95;8.93;;;16.70;70.20;;;;;;5057484;28;20040;-67
2022/05/05 09:09:22;;;;;;;9.68;8.68;;;16.70;69.30;;;;;;5056871;28;20029;-67
2022/05/05 09:12:04;;;;;;;9.63;7.78;;;16.80;69.50;;;;;;5056420;28;20044;-66
2022/05/05 09:14:46;;;;;;;9.48;8.57;;;16.80;69.00;;;;;;5058321;28;20033;-66
2022/05/05 09:17:16;;;;;;;10.20;9.07;;;16.90;68.60;;;;;;5061281;28;20528;-66
2022/05/05 09:19:48;;;;;;;9.40;8.48;;;16.90;68.90;;;;;;5058564;28;20059;-66
2022/05/05 09:22:15;;;;;;;9.40;8.38;;;17.00;69.00;;;;;;5059775;28;20477;-66
2022/05/05 09:24:49;;;;;;;8.80;7.90;;;17.00;69.10;;;;;;5060842;28;20094;-66
2022/05/05 09:27:26;;;;;;;9.13;8.32;;;17.00;68.90;;;;;;5066058;28;20068;-66
2022/05/05 09:30:00;;;;;;;10.07;9.07;;;17.10;68.80;;;;;;5058392;28;20035;-66
2022/05/05 09:32:31;;;;;;;9.65;8.65;;;17.20;68.80;;;;;;5062577;28;20532;-67
2022/05/05 09:35:24;;;;;;;9.63;8.63;;;17.20;68.50;;;;;;5064295;28;20128;-67
2022/05/05 09:37:54;;;;;;;10.43;8.80;;;17.30;68.30;;;;;;5060611;28;20437;-67
2022/05/05 09:40:22;;;;;;;9.50;8.45;;;17.30;67.90;;;;;;5059834;28;20119;-67
2022/05/05 09:42:49;;;;;;;8.98;8.18;;;17.40;68.60;;;;;;5060436;28;20170;-67
2022/05/05 09:45:19;;;;;;;9.32;8.35;;;17.40;68.40;;;;;;5058841;28;20048;-67
2022/05/05 09:47:58;;;;;;;10.48;9.00;;;17.50;67.80;;;;;;5059696;28;20032;-66
2022/05/05 09:50:26;;;;;;;9.75;8.85;;;17.50;67.70;;;;;;5058963;28;20501;-67
2022/05/05 09:58:26;;;;;;;13.13;8.85;;;17.70;67.30;;;;;;5059676;28;20448;-67
2022/05/05 10:01:31;;;;;;;9.98;8.98;;;17.70;67.80;;;;;;5057665;28;20036;-67
2022/05/05 10:04:03;;;;;;;11.25;9.60;;;17.70;67.40;;;;;;5053807;28;20033;-67
2022/05/05 10:06:42;;;;;;;10.77;9.00;;;17.80;67.20;;;;;;5060362;28;20028;-67
2022/05/05 10:09:07;;;;;;;9.38;8.48;;;17.80;66.70;;;;;;5058389;28;20105;-66
2022/05/05 10:11:34;;;;;;;9.55;8.65;;;17.90;67.10;;;;;;5057046;28;20057;-67
2022/05/05 10:14:02;;;;;;;9.65;8.75;;;17.90;66.70;;;;;;5056679;28;20603;-67
2022/05/05 10:16:31;;;;;;;9.05;8.15;;;17.90;66.30;;;;;;5058776;28;20032;-67
2022/05/05 10:18:57;;;;;;;8.77;7.97;;;17.90;66.20;;;;;;5058482;28;20677;-67
2022/05/05 10:21:37;;;;;;;8.80;7.90;;;18.00;66.20;;;;;;5063017;28;20036;-66
2022/05/05 10:24:18;;;;;;;8.85;7.95;;;18.00;65.50;;;;;;5061566;28;20025;-67
2022/05/05 10:26:55;;;;;;;8.43;7.63;;;18.20;65.50;;;;;;5059522;28;20055;-67
2022/05/05 10:29:33;;;;;;;8.15;7.38;;;18.20;65.10;;;;;;5058383;28;20030;-67
2022/05/05 10:32:25;;;;;;;8.38;7.60;;;18.30;65.30;;;;;;5058395;28;20580;-67
2022/05/05 10:35:13;;;;;;;8.93;8.13;;;18.50;64.70;;;;;;5059882;28;20039;-67
2022/05/05 10:37:39;;;;;;;10.32;9.00;;;18.60;64.00;;;;;;5062148;28;20024;-67
2022/05/05 10:40:08;;;;;;;10.48;9.48;;;18.70;64.60;;;;;;5059145;28;20113;-66
2022/05/05 10:42:35;;;;;;;9.70;7.93;;;18.80;64.10;;;;;;5061103;28;20476;-68
2022/05/05 10:45:10;;;;;;;8.55;7.75;;;18.80;62.20;;;;;;5063951;28;20032;-67
2022/05/05 10:48:24;;;;;;;7.07;6.40;;;18.80;61.70;;;;;;5060505;28;20150;-66
2022/05/05 10:50:50;;;;;;;6.50;5.97;;;18.80;62.40;;;;;;5058569;28;20107;-67
2022/05/05 10:53:37;;;;;;;9.27;8.38;;;18.90;62.60;;;;;;5058952;28;20608;-67
2022/05/05 10:56:24;;;;;;;8.60;7.80;;;19.00;62.10;;;;;;5057354;28;20037;-66
2022/05/05 10:59:03;;;;;;;9.00;8.20;;;19.00;62.40;;;;;;5061755;28;20032;-67
2022/05/05 11:01:50;;;;;;;8.57;7.78;;;19.10;63.10;;;;;;5059926;28;20048;-67
2022/05/05 11:04:15;;;;;;;9.75;8.85;;;19.10;61.80;;;;;;5042091;28;20033;-67
2022/05/05 11:06:48;;;;;;;8.82;7.93;;;19.10;61.20;;;;;;5057949;28;20382;-67
2022/05/05 11:09:30;;;;;;;9.50;8.50;;;19.00;60.90;;;;;;5057417;28;20058;-66
2022/05/05 11:12:18;;;;;;;9.88;8.90;;;19.00;61.30;;;;;;5057184;28;20032;-67
2022/05/05 11:23:25;;;;;;;9.52;8.63;;;18.90;61.20;;;;;;5060038;28;20554;-66
2022/05/05 11:25:52;;;;;;;7.53;6.82;;;18.90;60.50;;;;;;5060211;28;20028;-67
2022/05/05 11:28:19;;;;;;;8.32;7.40;;;18.80;60.80;;;;;;5057288;28;20040;-66
2022/05/05 11:30:45;;;;;;;7.97;7.28;;;18.80;61.30;;;;;;5056370;28;20040;-67
2022/05/05 11:33:11;;;;;;;10.15;8.45;;;18.90;61.50;;;;;;5055710;28;20035;-67
2022/05/05 11:35:37;;;;;;;8.52;7.72;;;18.90;61.90;;;;;;5056406;28;20041;-67
2022/05/05 11:38:08;;;;;;;7.97;7.28;;;18.90;62.00;;;;;;5056703;28;20082;-67
2022/05/05 11:40:36;;;;;;;8.60;7.80;;;19.00;61.90;;;;;;5057755;28;20045;-67
2022/05/05 11:45:53;;;;;;;7.60;6.97;;;19.20;61.20;;;;;;5060829;28;20124;-66
2022/05/05 11:48:19;;;;;;;6.95;6.25;;;19.20;60.60;;;;;;5055912;28;20279;-67
2022/05/05 11:50:45;;;;;;;6.82;6.22;;;19.20;59.70;;;;;;5057188;28;20037;-67
2022/05/05 11:53:18;;;;;;;6.55;5.95;;;19.30;60.00;;;;;;5057459;28;20525;-66
2022/05/05 11:55:48;;;;;;;6.80;6.20;;;19.30;59.10;;;;;;5060332;28;20344;-67
2022/05/05 12:01:36;;;;;;;6.28;5.47;;;19.40;58.90;;;;;;5058640;28;20036;-65
2022/05/05 12:04:00;;;;;;;5.38;4.97;;;19.50;58.90;;;;;;5058065;28;20078;-67
2022/05/05 12:06:27;;;;;;;6.75;6.10;;;19.50;58.90;;;;;;5057000;28;20410;-67
2022/05/05 12:08:57;;;;;;;5.57;4.97;;;19.50;58.70;;;;;;5058451;28;20031;-67
2022/05/05 12:11:26;;;;;;;7.50;5.35;;;19.60;59.10;;;;;;5056598;28;20469;-67
2022/05/05 12:13:52;;;;;;;5.40;4.63;;;19.70;59.00;;;;;;5058386;28;20028;-67
2022/05/05 12:16:18;;;;;;;5.85;5.35;;;19.80;59.10;;;;;;5058272;28;20418;-67
2022/05/05 12:18:53;;;;;;;7.00;6.30;;;19.90;58.10;;;;;;5059023;28;20516;-67
2022/05/05 12:21:23;;;;;;;5.45;4.95;;;19.90;58.00;;;;;;5057609;28;20405;-66
2022/05/05 12:23:59;;;;;;;8.40;5.20;;;20.00;58.30;;;;;;5058118;28;20044;-67
2022/05/05 12:26:33;;;;;;;6.53;5.93;;;20.10;57.40;;;;;;5057496;28;20526;-67
2022/05/05 12:28:59;;;;;;;7.10;6.43;;;20.10;57.40;;;;;;5064285;28;20033;-67
2022/05/05 12:31:28;;;;;;;7.72;7.03;;;20.20;57.30;;;;;;5058058;28;20680;-67
2022/05/05 12:33:54;;;;;;;7.82;7.10;;;20.20;56.80;;;;;;5057948;28;20390;-67
2022/05/05 12:36:28;;;;;;;6.18;5.63;;;20.20;57.70;;;;;;5060038;28;20069;-67
2022/05/05 12:39:12;;;;;;;8.50;6.80;;;20.20;57.30;;;;;;5058174;28;20029;-67
2022/05/05 12:41:55;;;;;;;8.90;6.78;;;20.20;55.70;;;;;;5058132;28;20037;-66
2022/05/05 12:44:21;;;;;;;6.18;5.57;;;20.20;56.20;;;;;;5057959;28;20386;-67
2022/05/05 12:46:51;;;;;;;5.80;5.30;;;20.10;56.70;;;;;;5061056;28;20037;-67
2022/05/05 12:49:36;;;;;;;6.07;5.45;;;20.10;56.70;;;;;;5061606;28;20067;-67
2022/05/05 12:59:36;;;;;;;7.90;5.15;;;20.00;56.40;;;;;;5061569;28;20036;-67
2022/05/05 13:00:22;;;;;;;5.55;4.75;;;20.00;57.00;;;;;;5061271;28;20048;-67
2022/05/05 13:02:47;;;;;;;5.95;5.38;;;20.00;57.10;;;;;;5061165;28;20872;-67
2022/05/05 13:05:14;;;;;;;5.65;5.15;;;20.00;56.90;;;;;;5061283;28;20094;-67
2022/05/05 13:07:40;;;;;;;5.55;5.05;;;20.10;57.00;;;;;;5063629;28;20080;-66
2022/05/05 13:10:07;;;;;;;5.70;5.20;;;20.10;56.70;;;;;;5060646;28;20541;-67
2022/05/05 13:12:32;;;;;;;5.65;5.00;;;20.20;56.50;;;;;;5055663;28;20028;-67
2022/05/05 13:14:58;;;;;;;6.55;5.47;;;20.20;56.20;;;;;;5060262;28;20032;-67
2022/05/05 13:17:24;;;;;;;5.47;4.97;;;20.30;56.40;;;;;;5060013;28;20029;-67
2022/05/05 13:19:49;;;;;;;5.70;5.00;;;20.30;56.40;;;;;;5060061;28;20029;-67
2022/05/05 13:22:15;;;;;;;4.90;4.40;;;20.40;56.20;;;;;;5059877;28;20037;-68
2022/05/05 13:24:40;;;;;;;4.82;4.50;;;20.40;55.50;;;;;;5061427;28;20507;-67
2022/05/05 13:27:06;;;;;;;5.55;5.05;;;20.50;56.00;;;;;;5057804;28;20094;-67
2022/05/05 13:29:32;;;;;;;5.82;5.32;;;20.50;55.40;;;;;;5059157;28;20047;-66
2022/05/05 13:31:57;;;;;;;6.93;5.90;;;20.60;55.50;;;;;;5060526;28;20759;-67
2022/05/05 13:34:24;;;;;;;6.22;4.82;;;20.60;55.40;;;;;;5059035;28;20405;-67
2022/05/05 13:36:50;;;;;;;5.15;4.70;;;20.70;55.40;;;;;;5059391;28;20033;-67
2022/05/05 13:39:17;;;;;;;5.25;4.22;;;20.70;54.00;;;;;;5062999;28;20491;-66